Wolke Sonne

Wetter Roßtal

Gehe zu: Ammerndorf | Roßtal 2

Tageswerte vom Mittwoch, 19.06.2019

Optionen

Tag:
Erweitert:

Alle Werte vom Mittwoch, 19.06.2019

Einen Moment bitte, die Daten werden aufbereitet...

UhrzeitTemperaturFeuchteLuftdruckNiederschlagEvapotranspirationNiederschlag?WindWindböenRegenrateWindrichtungHelligkeitSolarstrahlungUV-IndexSonne?Feinstaub 10µmUhrzeit
Diagramm IconDiagramm IconDiagramm IconDiagramm IconDiagramm IconDiagramm IconDiagramm IconDiagramm IconDiagramm IconDiagramm IconDiagramm IconDiagramm IconDiagramm IconDiagramm IconDiagramm Icon
00:0019,4 °C 73 % 1013,9 hPa 0,0 mm 0,0 mm nein 0,0 km/h 0,0 km/h 0,0 mm/h N 0,000 klux 0,0 W/qm 0,0 nein - 00:00
00:0519,4 °C 73 % 1013,8 hPa 0,0 mm 0,0 mm nein 0,0 km/h 0,0 km/h 0,0 mm/h N 0,000 klux 0,0 W/qm 0,0 nein - 00:05
00:1019,4 °C 73 % 1013,8 hPa 0,0 mm 0,0 mm nein 0,0 km/h 0,0 km/h 0,0 mm/h N 0,000 klux 0,0 W/qm 0,0 nein - 00:10
00:1519,4 °C 74 % 1013,8 hPa 0,0 mm 0,0 mm nein 0,0 km/h 0,0 km/h 0,0 mm/h N 0,000 klux 0,0 W/qm 0,0 nein - 00:15
00:2019,4 °C 74 % 1013,7 hPa 0,0 mm 0,0 mm nein 0,0 km/h 0,0 km/h 0,0 mm/h N 0,000 klux 0,0 W/qm 0,0 nein - 00:20
00:2519,4 °C 74 % 1013,8 hPa 0,0 mm 0,0 mm nein 0,0 km/h 0,0 km/h 0,0 mm/h N 0,000 klux 0,0 W/qm 0,0 nein - 00:25
00:3018,9 °C 75 % 1013,9 hPa 0,0 mm 0,0 mm nein 0,0 km/h 0,0 km/h 0,0 mm/h N 0,000 klux 0,0 W/qm 0,0 nein - 00:30
00:3518,9 °C 75 % 1013,9 hPa 0,0 mm 0,0 mm nein 0,0 km/h 0,0 km/h 0,0 mm/h N 0,000 klux 0,0 W/qm 0,0 nein - 00:35
00:4018,9 °C 75 % 1013,9 hPa 0,0 mm 0,0 mm nein 0,0 km/h 0,0 km/h 0,0 mm/h N 0,000 klux 0,0 W/qm 0,0 nein - 00:40
00:4518,9 °C 76 % 1013,8 hPa 0,0 mm 0,0 mm nein 0,0 km/h 0,0 km/h 0,0 mm/h N 0,000 klux 0,0 W/qm 0,0 nein - 00:45
00:5018,9 °C 77 % 1013,9 hPa 0,0 mm 0,0 mm nein 6,4 km/h 14,5 km/h 0,0 mm/h S 0,000 klux 0,0 W/qm 0,0 nein - 00:50
00:5518,9 °C 77 % 1013,9 hPa 0,0 mm 0,0 mm nein 4,8 km/h 11,3 km/h 0,0 mm/h S 0,000 klux 0,0 W/qm 0,0 nein - 00:55
01:0018,9 °C 77 % 1013,8 hPa 0,0 mm 0,0 mm nein 4,8 km/h 6,4 km/h 0,0 mm/h S 0,000 klux 0,0 W/qm 0,0 nein - 01:00
01:0518,9 °C 77 % 1013,7 hPa 0,0 mm 0,0 mm nein 4,8 km/h 6,4 km/h 0,0 mm/h S 0,000 klux 0,0 W/qm 0,0 nein - 01:05
01:1018,9 °C 77 % 1013,7 hPa 0,0 mm 0,0 mm nein 3,2 km/h 6,4 km/h 0,0 mm/h S 0,000 klux 0,0 W/qm 0,0 nein - 01:10
01:1518,3 °C 77 % 1013,8 hPa 0,0 mm 0,0 mm nein 3,2 km/h 4,8 km/h 0,0 mm/h S 0,000 klux 0,0 W/qm 0,0 nein - 01:15
01:2018,3 °C 77 % 1013,8 hPa 0,0 mm 0,0 mm nein 1,6 km/h 4,8 km/h 0,0 mm/h S 0,000 klux 0,0 W/qm 0,0 nein - 01:20
01:2518,3 °C 77 % 1013,8 hPa 0,0 mm 0,0 mm nein 0,0 km/h 0,0 km/h 0,0 mm/h N 0,000 klux 0,0 W/qm 0,0 nein - 01:25
01:3018,3 °C 78 % 1013,6 hPa 0,0 mm 0,0 mm nein 0,0 km/h 0,0 km/h 0,0 mm/h N 0,000 klux 0,0 W/qm 0,0 nein - 01:30
01:3518,3 °C 78 % 1013,6 hPa 0,0 mm 0,0 mm nein 0,0 km/h 0,0 km/h 0,0 mm/h N 0,000 klux 0,0 W/qm 0,0 nein - 01:35
01:4018,3 °C 78 % 1013,6 hPa 0,0 mm 0,0 mm nein 0,0 km/h 0,0 km/h 0,0 mm/h N 0,000 klux 0,0 W/qm 0,0 nein - 01:40
01:4518,3 °C 78 % 1013,5 hPa 0,0 mm 0,0 mm nein 0,0 km/h 0,0 km/h 0,0 mm/h N 0,000 klux 0,0 W/qm 0,0 nein - 01:45
01:5018,3 °C 78 % 1013,5 hPa 0,0 mm 0,0 mm nein 0,0 km/h 0,0 km/h 0,0 mm/h N 0,000 klux 0,0 W/qm 0,0 nein - 01:50
01:5518,3 °C 78 % 1013,3 hPa 0,0 mm 0,0 mm nein 0,0 km/h 0,0 km/h 0,0 mm/h N 0,000 klux 0,0 W/qm 0,0 nein - 01:55
UhrzeitTemperaturFeuchteLuftdruckNiederschlagEvapotranspirationNiederschlag?WindWindböenRegenrateWindrichtungHelligkeitSolarstrahlungUV-IndexSonne?Feinstaub 10µmUhrzeit
02:0018,3 °C 78 % 1013,3 hPa 0,0 mm 0,0 mm nein 0,0 km/h 0,0 km/h 0,0 mm/h N 0,000 klux 0,0 W/qm 0,0 nein - 02:00
02:0518,3 °C 78 % 1013,3 hPa 0,0 mm 0,0 mm nein 0,0 km/h 0,0 km/h 0,0 mm/h N 0,000 klux 0,0 W/qm 0,0 nein - 02:05
02:1018,3 °C 78 % 1013,2 hPa 0,0 mm 0,0 mm nein 0,0 km/h 0,0 km/h 0,0 mm/h N 0,000 klux 0,0 W/qm 0,0 nein - 02:10
02:1518,3 °C 78 % 1013,2 hPa 0,0 mm 0,0 mm nein 0,0 km/h 0,0 km/h 0,0 mm/h N 0,000 klux 0,0 W/qm 0,0 nein - 02:15
02:2018,3 °C 79 % 1013,2 hPa 0,0 mm 0,0 mm nein 0,0 km/h 1,6 km/h 0,0 mm/h S 0,000 klux 0,0 W/qm 0,0 nein - 02:20
02:2518,3 °C 79 % 1013,2 hPa 0,0 mm 0,0 mm nein 0,0 km/h 0,0 km/h 0,0 mm/h N 0,000 klux 0,0 W/qm 0,0 nein - 02:25
02:3018,3 °C 80 % 1013,1 hPa 0,0 mm 0,0 mm nein 0,0 km/h 0,0 km/h 0,0 mm/h N 0,000 klux 0,0 W/qm 0,0 nein - 02:30
02:3518,3 °C 80 % 1013,1 hPa 0,0 mm 0,0 mm nein 0,0 km/h 0,0 km/h 0,0 mm/h N 0,000 klux 0,0 W/qm 0,0 nein - 02:35
02:4018,3 °C 80 % 1013,0 hPa 0,0 mm 0,0 mm nein 0,0 km/h 0,0 km/h 0,0 mm/h N 0,000 klux 0,0 W/qm 0,0 nein - 02:40
02:4518,3 °C 80 % 1012,9 hPa 0,0 mm 0,0 mm nein 0,0 km/h 0,0 km/h 0,0 mm/h N 0,000 klux 0,0 W/qm 0,0 nein - 02:45
02:5018,3 °C 80 % 1012,9 hPa 0,0 mm 0,0 mm nein 0,0 km/h 0,0 km/h 0,0 mm/h N 0,000 klux 0,0 W/qm 0,0 nein - 02:50
02:5518,3 °C 80 % 1012,9 hPa 0,0 mm 0,0 mm nein 0,0 km/h 0,0 km/h 0,0 mm/h N 0,000 klux 0,0 W/qm 0,0 nein - 02:55
03:0018,3 °C 80 % 1012,8 hPa 0,0 mm 0,0 mm nein 0,0 km/h 0,0 km/h 0,0 mm/h N 0,000 klux 0,0 W/qm 0,0 nein - 03:00
03:0518,3 °C 79 % 1012,8 hPa 0,0 mm 0,0 mm nein 0,0 km/h 0,0 km/h 0,0 mm/h N 0,000 klux 0,0 W/qm 0,0 nein - 03:05
03:1018,3 °C 79 % 1012,8 hPa 0,0 mm 0,0 mm nein 0,0 km/h 0,0 km/h 0,0 mm/h N 0,000 klux 0,0 W/qm 0,0 nein - 03:10
03:1518,3 °C 79 % 1012,7 hPa 0,0 mm 0,0 mm nein 0,0 km/h 0,0 km/h 0,0 mm/h N 0,000 klux 0,0 W/qm 0,0 nein - 03:15
03:2018,3 °C 79 % 1012,8 hPa 0,0 mm 0,0 mm nein 0,0 km/h 0,0 km/h 0,0 mm/h N 0,000 klux 0,0 W/qm 0,0 nein - 03:20
03:2518,3 °C 79 % 1012,8 hPa 0,0 mm 0,0 mm nein 0,0 km/h 0,0 km/h 0,0 mm/h N 0,000 klux 0,0 W/qm 0,0 nein - 03:25
03:3018,3 °C 79 % 1012,8 hPa 0,0 mm 0,0 mm nein 0,0 km/h 0,0 km/h 0,0 mm/h N 0,000 klux 0,0 W/qm 0,0 nein - 03:30
03:3518,3 °C 79 % 1012,7 hPa 0,0 mm 0,0 mm nein 0,0 km/h 0,0 km/h 0,0 mm/h N 0,000 klux 0,0 W/qm 0,0 nein - 03:35
03:4018,3 °C 78 % 1012,7 hPa 0,0 mm 0,0 mm nein 0,0 km/h 0,0 km/h 0,0 mm/h N 0,000 klux 0,0 W/qm 0,0 nein - 03:40
03:4518,3 °C 78 % 1012,6 hPa 0,0 mm 0,0 mm nein 0,0 km/h 0,0 km/h 0,0 mm/h N 0,000 klux 0,0 W/qm 0,0 nein - 03:45
03:5018,3 °C 78 % 1012,6 hPa 0,0 mm 0,0 mm nein 0,0 km/h 8,0 km/h 0,0 mm/h SSW 0,000 klux 0,0 W/qm 0,0 nein - 03:50
03:5518,3 °C 78 % 1012,5 hPa 0,0 mm 0,0 mm nein 1,6 km/h 8,0 km/h 0,0 mm/h W 0,000 klux 0,0 W/qm 0,0 nein - 03:55
UhrzeitTemperaturFeuchteLuftdruckNiederschlagEvapotranspirationNiederschlag?WindWindböenRegenrateWindrichtungHelligkeitSolarstrahlungUV-IndexSonne?Feinstaub 10µmUhrzeit
04:0018,3 °C 78 % 1012,5 hPa 0,0 mm 0,0 mm nein 3,2 km/h 12,9 km/h 0,0 mm/h SW 0,000 klux 0,0 W/qm 0,0 nein - 04:00
04:0518,3 °C 77 % 1012,4 hPa 0,0 mm 0,0 mm nein 4,8 km/h 9,7 km/h 0,0 mm/h SW 0,000 klux 0,0 W/qm 0,0 nein - 04:05
04:1018,9 °C 77 % 1012,3 hPa 0,0 mm 0,0 mm nein 4,8 km/h 9,7 km/h 0,0 mm/h SSW 0,000 klux 0,0 W/qm 0,0 nein - 04:10
04:1518,9 °C 77 % 1012,3 hPa 0,0 mm 0,0 mm nein 4,8 km/h 14,5 km/h 0,0 mm/h SW 0,000 klux 0,0 W/qm 0,0 nein - 04:15
04:2018,9 °C 77 % 1012,3 hPa 0,0 mm 0,0 mm nein 4,8 km/h 12,9 km/h 0,0 mm/h SW 0,000 klux 0,0 W/qm 0,0 nein - 04:20
04:2518,9 °C 76 % 1012,3 hPa 0,0 mm 0,0 mm nein 4,8 km/h 11,3 km/h 0,0 mm/h SSW 0,000 klux 0,0 W/qm 0,0 nein - 04:25
04:3018,9 °C 76 % 1012,2 hPa 0,0 mm 0,0 mm nein 4,8 km/h 12,9 km/h 0,0 mm/h SW 0,000 klux 0,0 W/qm 0,0 nein - 04:30
04:3518,9 °C 75 % 1012,2 hPa 0,0 mm 0,0 mm nein 6,4 km/h 12,9 km/h 0,0 mm/h SW 0,000 klux 0,0 W/qm 0,0 nein - 04:35
04:4018,9 °C 75 % 1012,2 hPa 0,0 mm 0,0 mm nein 4,8 km/h 8,0 km/h 0,0 mm/h SW 0,000 klux 0,0 W/qm 0,0 nein - 04:40
04:4518,9 °C 75 % 1012,2 hPa 0,0 mm 0,0 mm nein 3,2 km/h 12,9 km/h 0,0 mm/h SW 0,000 klux 0,0 W/qm 0,0 nein - 04:45
04:5018,9 °C 74 % 1012,2 hPa 0,0 mm 0,0 mm nein 3,2 km/h 9,7 km/h 0,0 mm/h SSW 0,000 klux 0,0 W/qm 0,0 nein - 04:50
04:5518,9 °C 74 % 1012,1 hPa 0,0 mm 0,0 mm nein 3,2 km/h 8,0 km/h 0,0 mm/h S 0,000 klux 0,0 W/qm 0,0 nein - 04:55
05:0018,9 °C 74 % 1012,2 hPa 0,0 mm 0,0 mm nein 0,0 km/h 1,6 km/h 0,0 mm/h SSW 0,000 klux 0,0 W/qm 0,0 nein - 05:00
05:0518,9 °C 74 % 1012,2 hPa 0,0 mm 0,0 mm nein 0,0 km/h 0,0 km/h 0,0 mm/h N 0,000 klux 0,0 W/qm 0,0 nein - 05:05
05:1018,9 °C 74 % 1012,2 hPa 0,0 mm 0,0 mm nein 0,0 km/h 0,0 km/h 0,0 mm/h N 0,000 klux 0,0 W/qm 0,0 nein - 05:10
05:1518,9 °C 74 % 1012,2 hPa 0,0 mm 0,0 mm nein 0,0 km/h 0,0 km/h 0,0 mm/h N 0,000 klux 0,0 W/qm 0,0 nein - 05:15
05:2018,9 °C 74 % 1012,2 hPa 0,0 mm 0,0 mm nein 1,6 km/h 6,4 km/h 0,0 mm/h SSO 0,501 klux 3,0 W/qm 0,0 nein - 05:20
05:2518,9 °C 74 % 1012,3 hPa 0,0 mm 0,0 mm nein 1,6 km/h 6,4 km/h 0,0 mm/h SSO 0,999 klux 6,0 W/qm 0,0 nein - 05:25
05:3018,9 °C 75 % 1012,2 hPa 0,0 mm 0,0 mm nein 0,0 km/h 0,0 km/h 0,0 mm/h N 1,327 klux 8,0 W/qm 0,0 nein - 05:30
05:3518,9 °C 75 % 1012,2 hPa 0,0 mm 0,0 mm nein 0,0 km/h 0,0 km/h 0,0 mm/h N 1,818 klux 11,0 W/qm 0,0 nein - 05:35
05:4018,9 °C 75 % 1012,2 hPa 0,0 mm 0,0 mm nein 0,0 km/h 0,0 km/h 0,0 mm/h N 2,470 klux 15,0 W/qm 0,0 nein - 05:40
05:4518,9 °C 76 % 1012,2 hPa 0,0 mm 0,0 mm nein 0,0 km/h 0,0 km/h 0,0 mm/h N 3,117 klux 19,0 W/qm 0,0 nein - 05:45
05:5018,3 °C 76 % 1012,3 hPa 0,0 mm 0,0 mm nein 0,0 km/h 0,0 km/h 0,0 mm/h N 3,433 klux 21,0 W/qm 0,0 nein - 05:50
05:5518,3 °C 76 % 1012,2 hPa 0,0 mm 0,0 mm nein 0,0 km/h 0,0 km/h 0,0 mm/h N 3,745 klux 23,0 W/qm 0,0 nein - 05:55
UhrzeitTemperaturFeuchteLuftdruckNiederschlagEvapotranspirationNiederschlag?WindWindböenRegenrateWindrichtungHelligkeitSolarstrahlungUV-IndexSonne?Feinstaub 10µmUhrzeit
06:0018,3 °C 76 % 1012,3 hPa 0,0 mm 0,0 mm nein 0,0 km/h 0,0 km/h 0,0 mm/h N 3,894 klux 24,0 W/qm 0,0 nein - 06:00
06:0518,3 °C 77 % 1012,3 hPa 0,0 mm 0,0 mm nein 0,0 km/h 0,0 km/h 0,0 mm/h N 4,363 klux 27,0 W/qm 0,0 nein - 06:05
06:1018,3 °C 77 % 1012,3 hPa 0,0 mm 0,0 mm nein 0,0 km/h 0,0 km/h 0,0 mm/h N 4,829 klux 30,0 W/qm 0,0 nein - 06:10
06:1518,3 °C 77 % 1012,3 hPa 0,0 mm 0,0 mm nein 0,0 km/h 0,0 km/h 0,0 mm/h N 5,452 klux 34,0 W/qm 0,0 nein - 06:15
06:2018,3 °C 79 % 1012,3 hPa 0,0 mm 0,0 mm nein 0,0 km/h 0,0 km/h 0,0 mm/h N 6,388 klux 40,0 W/qm 0,0 nein - 06:20
06:2518,3 °C 80 % 1012,3 hPa 0,0 mm 0,0 mm nein 0,0 km/h 0,0 km/h 0,0 mm/h N 7,953 klux 50,0 W/qm 0,0 nein - 06:25
06:3018,3 °C 81 % 1012,2 hPa 0,0 mm 0,0 mm nein 0,0 km/h 0,0 km/h 0,0 mm/h N 10,456 klux 66,0 W/qm 0,0 nein - 06:30
06:3518,3 °C 82 % 1012,3 hPa 0,0 mm 0,0 mm nein 0,0 km/h 0,0 km/h 0,0 mm/h N 16,092 klux 102,0 W/qm 0,0 ja - 06:35
06:4018,3 °C 82 % 1012,3 hPa 0,0 mm 0,0 mm nein 0,0 km/h 0,0 km/h 0,0 mm/h N 14,768 klux 94,0 W/qm 0,0 ja - 06:40
06:4518,3 °C 83 % 1012,3 hPa 0,0 mm 0,0 mm nein 0,0 km/h 0,0 km/h 0,0 mm/h N 22,216 klux 142,0 W/qm 0,0 ja - 06:45
06:5018,9 °C 83 % 1012,1 hPa 0,0 mm 0,0 mm nein 0,0 km/h 0,0 km/h 0,0 mm/h N 30,690 klux 197,0 W/qm 0,0 ja - 06:50
06:5518,9 °C 81 % 1012,1 hPa 0,0 mm 0,0 mm nein 0,0 km/h 0,0 km/h 0,0 mm/h N 31,179 klux 201,0 W/qm 0,0 ja - 06:55
07:0019,4 °C 79 % 1012,0 hPa 0,0 mm 0,1 mm nein 0,0 km/h 0,0 km/h 0,0 mm/h N 34,905 klux 226,0 W/qm 0,0 ja - 07:00
07:0520,0 °C 78 % 1011,9 hPa 0,0 mm 0,0 mm nein 0,0 km/h 0,0 km/h 0,0 mm/h N 39,365 klux 256,0 W/qm 0,0 ja - 07:05
07:1020,6 °C 75 % 1011,8 hPa 0,0 mm 0,0 mm nein 0,0 km/h 0,0 km/h 0,0 mm/h N 34,293 klux 224,0 W/qm 0,0 ja - 07:10
07:1520,6 °C 73 % 1011,8 hPa 0,0 mm 0,0 mm nein 0,0 km/h 0,0 km/h 0,0 mm/h N 25,148 klux 165,0 W/qm 0,0 ja - 07:15
07:2020,6 °C 72 % 1011,8 hPa 0,0 mm 0,0 mm nein 0,0 km/h 0,0 km/h 0,0 mm/h N 17,600 klux 116,0 W/qm 0,0 nein - 07:20
07:2521,1 °C 73 % 1011,7 hPa 0,0 mm 0,0 mm nein 0,0 km/h 0,0 km/h 0,0 mm/h N 17,369 klux 115,0 W/qm 0,3 nein - 07:25
07:3021,1 °C 71 % 1011,7 hPa 0,0 mm 0,0 mm nein 0,0 km/h 0,0 km/h 0,0 mm/h N 26,160 klux 174,0 W/qm 0,5 ja - 07:30
07:3521,1 °C 71 % 1011,7 hPa 0,0 mm 0,0 mm nein 0,0 km/h 0,0 km/h 0,0 mm/h N 38,162 klux 255,0 W/qm 0,6 ja - 07:35
07:4021,1 °C 69 % 1011,6 hPa 0,0 mm 0,0 mm nein 0,0 km/h 0,0 km/h 0,0 mm/h N 40,516 klux 272,0 W/qm 0,7 ja - 07:40
07:4521,7 °C 71 % 1011,5 hPa 0,0 mm 0,0 mm nein 0,0 km/h 0,0 km/h 0,0 mm/h N 48,036 klux 324,0 W/qm 0,8 ja - 07:45
07:5021,7 °C 70 % 1011,5 hPa 0,0 mm 0,0 mm nein 0,0 km/h 0,0 km/h 0,0 mm/h N 57,105 klux 387,0 W/qm 0,9 ja - 07:50
07:5522,2 °C 67 % 1011,4 hPa 0,0 mm 0,0 mm nein 0,0 km/h 0,0 km/h 0,0 mm/h N 59,918 klux 408,0 W/qm 1,0 ja - 07:55
UhrzeitTemperaturFeuchteLuftdruckNiederschlagEvapotranspirationNiederschlag?WindWindböenRegenrateWindrichtungHelligkeitSolarstrahlungUV-IndexSonne?Feinstaub 10µmUhrzeit
08:0022,2 °C 68 % 1011,3 hPa 0,0 mm 0,2 mm nein 0,0 km/h 0,0 km/h 0,0 mm/h N 61,823 klux 423,0 W/qm 1,0 ja - 08:00
08:0522,8 °C 67 % 1011,3 hPa 0,0 mm 0,0 mm nein 0,0 km/h 0,0 km/h 0,0 mm/h N 60,943 klux 419,0 W/qm 1,1 ja - 08:05
08:1022,8 °C 66 % 1011,2 hPa 0,0 mm 0,0 mm nein 0,0 km/h 0,0 km/h 0,0 mm/h N 62,673 klux 433,0 W/qm 1,2 ja - 08:10
08:1523,3 °C 66 % 1011,2 hPa 0,0 mm 0,0 mm nein 0,0 km/h 0,0 km/h 0,0 mm/h N 63,807 klux 443,0 W/qm 1,2 ja - 08:15
08:2023,3 °C 63 % 1011,1 hPa 0,0 mm 0,0 mm nein 0,0 km/h 0,0 km/h 0,0 mm/h N 62,489 klux 436,0 W/qm 1,3 ja - 08:20
08:2523,3 °C 64 % 1011,0 hPa 0,0 mm 0,0 mm nein 0,0 km/h 0,0 km/h 0,0 mm/h N 51,341 klux 360,0 W/qm 1,2 ja - 08:25
08:3023,9 °C 65 % 1011,0 hPa 0,0 mm 0,0 mm nein 0,0 km/h 0,0 km/h 0,0 mm/h N 63,714 klux 449,0 W/qm 1,4 ja - 08:30
08:3523,9 °C 63 % 1011,0 hPa 0,0 mm 0,0 mm nein 0,0 km/h 0,0 km/h 0,0 mm/h N 64,383 klux 456,0 W/qm 1,5 ja - 08:35
08:4024,4 °C 62 % 1010,9 hPa 0,0 mm 0,0 mm nein 0,0 km/h 0,0 km/h 0,0 mm/h N 67,711 klux 482,0 W/qm 1,6 ja - 08:40
08:4524,4 °C 61 % 1010,9 hPa 0,0 mm 0,0 mm nein 0,0 km/h 0,0 km/h 0,0 mm/h N 70,303 klux 503,0 W/qm 1,7 ja - 08:45
08:5024,4 °C 63 % 1010,8 hPa 0,0 mm 0,0 mm nein 0,0 km/h 0,0 km/h 0,0 mm/h N 69,528 klux 500,0 W/qm 1,7 ja - 08:50
08:5525,0 °C 61 % 1010,7 hPa 0,0 mm 0,0 mm nein 1,6 km/h 9,7 km/h 0,0 mm/h SSO 68,480 klux 495,0 W/qm 1,8 ja - 08:55
09:0025,0 °C 62 % 1010,7 hPa 0,0 mm 0,3 mm nein 1,6 km/h 4,8 km/h 0,0 mm/h SSO 75,835 klux 551,0 W/qm 1,9 ja - 09:00
09:0525,0 °C 60 % 1010,6 hPa 0,0 mm 0,0 mm nein 0,0 km/h 0,0 km/h 0,0 mm/h N 74,759 klux 546,0 W/qm 2,0 ja - 09:05
09:1025,6 °C 58 % 1010,5 hPa 0,0 mm 0,0 mm nein 0,0 km/h 0,0 km/h 0,0 mm/h N 72,192 klux 530,0 W/qm 2,1 ja - 09:10
09:1525,6 °C 61 % 1010,5 hPa 0,0 mm 0,0 mm nein 4,8 km/h 11,3 km/h 0,0 mm/h SSO 79,540 klux 587,0 W/qm 2,3 ja - 09:15
09:2025,6 °C 59 % 1010,5 hPa 0,0 mm 0,0 mm nein 1,6 km/h 6,4 km/h 0,0 mm/h SO 77,372 klux 574,0 W/qm 2,3 ja - 09:20
09:2525,0 °C 60 % 1010,6 hPa 0,0 mm 0,0 mm nein 1,6 km/h 9,7 km/h 0,0 mm/h S 83,135 klux 620,0 W/qm 2,5 ja - 09:25
09:3025,6 °C 58 % 1010,4 hPa 0,0 mm 0,0 mm nein 4,8 km/h 8,0 km/h 0,0 mm/h S 84,299 klux 632,0 W/qm 2,6 ja - 09:30
09:3525,6 °C 57 % 1010,4 hPa 0,0 mm 0,0 mm nein 3,2 km/h 6,4 km/h 0,0 mm/h SO 80,140 klux 604,0 W/qm 2,6 ja - 09:35
09:4025,0 °C 57 % 1010,5 hPa 0,0 mm 0,0 mm nein 0,0 km/h 0,0 km/h 0,0 mm/h N 78,398 klux 594,0 W/qm 2,6 ja - 09:40
09:4525,6 °C 59 % 1010,3 hPa 0,0 mm 0,0 mm nein 4,8 km/h 9,7 km/h 0,0 mm/h SSO 85,204 klux 649,0 W/qm 2,9 ja - 09:45
09:5025,0 °C 57 % 1010,4 hPa 0,0 mm 0,0 mm nein 0,0 km/h 1,6 km/h 0,0 mm/h SO 84,231 klux 645,0 W/qm 2,9 ja - 09:50
09:5525,6 °C 57 % 1010,3 hPa 0,0 mm 0,0 mm nein 3,2 km/h 8,0 km/h 0,0 mm/h S 89,890 klux 692,0 W/qm 3,2 ja - 09:55
UhrzeitTemperaturFeuchteLuftdruckNiederschlagEvapotranspirationNiederschlag?WindWindböenRegenrateWindrichtungHelligkeitSolarstrahlungUV-IndexSonne?Feinstaub 10µmUhrzeit
10:0026,1 °C 59 % 1010,2 hPa 0,0 mm 0,4 mm nein 3,2 km/h 11,3 km/h 0,0 mm/h S 91,869 klux 711,0 W/qm 3,3 ja - 10:00
10:0526,1 °C 59 % 1010,1 hPa 0,0 mm 0,0 mm nein 3,2 km/h 9,7 km/h 0,0 mm/h SSO 84,185 klux 655,0 W/qm 3,1 ja - 10:05
10:1026,1 °C 57 % 1010,0 hPa 0,0 mm 0,0 mm nein 4,8 km/h 12,9 km/h 0,0 mm/h SSO 87,064 klux 681,0 W/qm 3,2 ja - 10:10
10:1526,1 °C 58 % 1010,0 hPa 0,0 mm 0,0 mm nein 6,4 km/h 16,1 km/h 0,0 mm/h OSO 81,645 klux 642,0 W/qm 3,3 ja - 10:15
10:2026,1 °C 57 % 1010,0 hPa 0,0 mm 0,0 mm nein 8,0 km/h 16,1 km/h 0,0 mm/h OSO 87,666 klux 693,0 W/qm 3,4 ja - 10:20
10:2526,1 °C 58 % 1010,0 hPa 0,0 mm 0,0 mm nein 8,0 km/h 14,5 km/h 0,0 mm/h OSO 91,610 klux 728,0 W/qm 3,7 ja - 10:25
10:3026,1 °C 55 % 1010,1 hPa 0,0 mm 0,0 mm nein 6,4 km/h 14,5 km/h 0,0 mm/h O 95,511 klux 763,0 W/qm 3,9 ja - 10:30
10:3526,1 °C 58 % 1010,1 hPa 0,0 mm 0,0 mm nein 6,4 km/h 14,5 km/h 0,0 mm/h O 95,885 klux 770,0 W/qm 3,9 ja - 10:35
10:4026,7 °C 56 % 1010,0 hPa 0,0 mm 0,0 mm nein 4,8 km/h 11,3 km/h 0,0 mm/h O 96,750 klux 781,0 W/qm 4,0 ja - 10:40
10:4526,7 °C 53 % 1010,1 hPa 0,0 mm 0,0 mm nein 6,4 km/h 14,5 km/h 0,0 mm/h O 97,237 klux 789,0 W/qm 4,1 ja - 10:45
10:5026,7 °C 52 % 1010,1 hPa 0,0 mm 0,0 mm nein 4,8 km/h 14,5 km/h 0,0 mm/h OSO 97,353 klux 794,0 W/qm 4,3 ja - 10:50
10:5526,7 °C 53 % 1010,1 hPa 0,0 mm 0,0 mm nein 4,8 km/h 12,9 km/h 0,0 mm/h OSO 95,151 klux 780,0 W/qm 4,3 ja - 10:55
11:0026,7 °C 52 % 1010,0 hPa 0,0 mm 0,5 mm nein 3,2 km/h 14,5 km/h 0,0 mm/h O 97,464 klux 803,0 W/qm 4,5 ja - 11:00
11:0527,2 °C 52 % 1009,9 hPa 0,0 mm 0,0 mm nein 6,4 km/h 14,5 km/h 0,0 mm/h ONO 98,308 klux 814,0 W/qm 4,6 ja - 11:05
11:1027,8 °C 52 % 1009,8 hPa 0,0 mm 0,0 mm nein 6,4 km/h 12,9 km/h 0,0 mm/h O 98,907 klux 823,0 W/qm 4,7 ja - 11:10
11:1527,8 °C 52 % 1009,8 hPa 0,0 mm 0,0 mm nein 8,0 km/h 14,5 km/h 0,0 mm/h OSO 100,102 klux 837,0 W/qm 4,8 ja - 11:15
11:2028,3 °C 50 % 1009,6 hPa 0,0 mm 0,0 mm nein 4,8 km/h 16,1 km/h 0,0 mm/h O 98,911 klux 831,0 W/qm 4,8 ja - 11:20
11:2528,3 °C 48 % 1009,7 hPa 0,0 mm 0,0 mm nein 6,4 km/h 12,9 km/h 0,0 mm/h SO 101,409 klux 856,0 W/qm 5,0 ja - 11:25
11:3028,9 °C 48 % 1009,6 hPa 0,0 mm 0,0 mm nein 4,8 km/h 12,9 km/h 0,0 mm/h OSO 100,590 klux 853,0 W/qm 5,0 ja - 11:30
11:3528,9 °C 47 % 1009,7 hPa 0,0 mm 0,0 mm nein 4,8 km/h 12,9 km/h 0,0 mm/h OSO 100,842 klux 859,0 W/qm 5,1 ja - 11:35
11:4028,9 °C 48 % 1009,6 hPa 0,0 mm 0,0 mm nein 3,2 km/h 12,9 km/h 0,0 mm/h SSW 100,985 klux 864,0 W/qm 5,2 ja - 11:40
11:4529,4 °C 48 % 1009,6 hPa 0,0 mm 0,0 mm nein 4,8 km/h 9,7 km/h 0,0 mm/h SO 101,136 klux 869,0 W/qm 5,3 ja - 11:45
11:5029,4 °C 46 % 1009,6 hPa 0,0 mm 0,0 mm nein 8,0 km/h 14,5 km/h 0,0 mm/h SO 100,950 klux 871,0 W/qm 5,4 ja - 11:50
11:5529,4 °C 48 % 1009,6 hPa 0,0 mm 0,0 mm nein 6,4 km/h 12,9 km/h 0,0 mm/h S 101,470 klux 879,0 W/qm 5,5 ja - 11:55
UhrzeitTemperaturFeuchteLuftdruckNiederschlagEvapotranspirationNiederschlag?WindWindböenRegenrateWindrichtungHelligkeitSolarstrahlungUV-IndexSonne?Feinstaub 10µmUhrzeit
12:0029,4 °C 45 % 1009,6 hPa 0,0 mm 0,6 mm nein 6,4 km/h 14,5 km/h 0,0 mm/h SSO 101,540 klux 883,0 W/qm 5,6 ja - 12:00
12:0529,4 °C 42 % 1009,5 hPa 0,0 mm 0,0 mm nein 4,8 km/h 8,0 km/h 0,0 mm/h W 101,739 klux 888,0 W/qm 5,7 ja - 12:05
12:1030,0 °C 46 % 1009,5 hPa 0,0 mm 0,0 mm nein 6,4 km/h 14,5 km/h 0,0 mm/h WNW 101,724 klux 891,0 W/qm 5,8 ja - 12:10
12:1530,0 °C 41 % 1009,5 hPa 0,0 mm 0,0 mm nein 3,2 km/h 6,4 km/h 0,0 mm/h SO 101,500 klux 892,0 W/qm 5,8 ja - 12:15
12:2030,0 °C 45 % 1009,6 hPa 0,0 mm 0,0 mm nein 6,4 km/h 12,9 km/h 0,0 mm/h O 101,069 klux 891,0 W/qm 5,7 ja - 12:20
12:2530,0 °C 43 % 1009,5 hPa 0,0 mm 0,0 mm nein 8,0 km/h 14,5 km/h 0,0 mm/h O 103,375 klux 914,0 W/qm 5,8 ja - 12:25
12:3030,0 °C 43 % 1009,5 hPa 0,0 mm 0,0 mm nein 6,4 km/h 17,7 km/h 0,0 mm/h S 106,029 klux 940,0 W/qm 6,0 ja - 12:30
12:3530,0 °C 43 % 1009,5 hPa 0,0 mm 0,0 mm nein 6,4 km/h 19,3 km/h 0,0 mm/h SO 103,517 klux 920,0 W/qm 6,0 ja - 12:35
12:4030,6 °C 42 % 1009,5 hPa 0,0 mm 0,0 mm nein 12,9 km/h 19,3 km/h 0,0 mm/h SSO 104,745 klux 933,0 W/qm 6,1 ja - 12:40
12:4530,6 °C 41 % 1009,5 hPa 0,0 mm 0,0 mm nein 4,8 km/h 8,0 km/h 0,0 mm/h WSW 107,115 klux 956,0 W/qm 5,5 ja - 12:45
12:5029,4 °C 39 % 1009,7 hPa 0,0 mm 0,0 mm nein 3,2 km/h 9,7 km/h 0,0 mm/h SSO 104,023 klux 930,0 W/qm 5,8 ja - 12:50
12:5529,4 °C 41 % 1009,7 hPa 0,0 mm 0,0 mm nein 6,4 km/h 16,1 km/h 0,0 mm/h OSO 106,106 klux 950,0 W/qm 6,2 ja - 12:55
13:0029,4 °C 40 % 1009,6 hPa 0,0 mm 0,7 mm nein 9,7 km/h 16,1 km/h 0,0 mm/h SSO 105,201 klux 943,0 W/qm 6,2 ja - 13:00
13:0529,4 °C 44 % 1009,6 hPa 0,0 mm 0,0 mm nein 6,4 km/h 14,5 km/h 0,0 mm/h S 105,776 klux 949,0 W/qm 6,1 ja - 13:05
13:1029,4 °C 42 % 1009,5 hPa 0,0 mm 0,0 mm nein 4,8 km/h 16,1 km/h 0,0 mm/h SSO 105,043 klux 943,0 W/qm 5,6 ja - 13:10
13:1530,0 °C 43 % 1009,5 hPa 0,0 mm 0,0 mm nein 8,0 km/h 16,1 km/h 0,0 mm/h S 105,679 klux 949,0 W/qm 6,1 ja - 13:15
13:2030,0 °C 42 % 1009,4 hPa 0,0 mm 0,0 mm nein 3,2 km/h 6,4 km/h 0,0 mm/h S 107,458 klux 965,0 W/qm 5,7 ja - 13:20
13:2530,6 °C 42 % 1009,3 hPa 0,0 mm 0,0 mm nein 8,0 km/h 14,5 km/h 0,0 mm/h SO 106,930 klux 960,0 W/qm 6,3 ja - 13:25
13:3030,6 °C 44 % 1009,3 hPa 0,0 mm 0,0 mm nein 8,0 km/h 16,1 km/h 0,0 mm/h SSO 108,662 klux 975,0 W/qm 6,2 ja - 13:30
13:3530,6 °C 38 % 1009,3 hPa 0,0 mm 0,0 mm nein 3,2 km/h 12,9 km/h 0,0 mm/h SO 108,085 klux 969,0 W/qm 6,2 ja - 13:35
13:4031,1 °C 41 % 1009,1 hPa 0,0 mm 0,0 mm nein 6,4 km/h 14,5 km/h 0,0 mm/h SSO 105,974 klux 949,0 W/qm 6,1 ja - 13:40
13:4531,1 °C 41 % 1009,1 hPa 0,0 mm 0,0 mm nein 8,0 km/h 17,7 km/h 0,0 mm/h SO 105,005 klux 939,0 W/qm 6,0 ja - 13:45
13:5031,1 °C 41 % 1009,1 hPa 0,0 mm 0,0 mm nein 6,4 km/h 16,1 km/h 0,0 mm/h SSO 104,957 klux 937,0 W/qm 6,0 ja - 13:50
13:5530,6 °C 37 % 1009,2 hPa 0,0 mm 0,0 mm nein 6,4 km/h 16,1 km/h 0,0 mm/h SSW 24,467 klux 218,0 W/qm 3,8 nein - 13:55
UhrzeitTemperaturFeuchteLuftdruckNiederschlagEvapotranspirationNiederschlag?WindWindböenRegenrateWindrichtungHelligkeitSolarstrahlungUV-IndexSonne?Feinstaub 10µmUhrzeit
14:0029,4 °C 40 % 1009,3 hPa 0,0 mm 0,6 mm nein 3,2 km/h 9,7 km/h 0,0 mm/h OSO 21,033 klux 187,0 W/qm 3,7 nein - 14:00
14:0529,4 °C 39 % 1009,3 hPa 0,0 mm 0,0 mm nein 8,0 km/h 17,7 km/h 0,0 mm/h OSO 113,655 klux 1008,0 W/qm 5,1 ja - 14:05
14:1030,0 °C 39 % 1009,2 hPa 0,0 mm 0,0 mm nein 8,0 km/h 17,7 km/h 0,0 mm/h OSO 111,698 klux 988,0 W/qm 5,9 ja - 14:10
14:1530,6 °C 41 % 1009,1 hPa 0,0 mm 0,0 mm nein 6,4 km/h 17,7 km/h 0,0 mm/h W 108,847 klux 960,0 W/qm 5,9 ja - 14:15
14:2031,1 °C 37 % 1009,2 hPa 0,0 mm 0,0 mm nein 6,4 km/h 17,7 km/h 0,0 mm/h SSW 109,071 klux 959,0 W/qm 5,9 ja - 14:20
14:2531,1 °C 34 % 1009,1 hPa 0,0 mm 0,0 mm nein 6,4 km/h 14,5 km/h 0,0 mm/h W 110,231 klux 966,0 W/qm 5,9 ja - 14:25
14:3031,1 °C 34 % 1009,1 hPa 0,0 mm 0,0 mm nein 8,0 km/h 17,7 km/h 0,0 mm/h SSW 110,043 klux 961,0 W/qm 5,5 ja - 14:30
14:3530,6 °C 34 % 1009,1 hPa 0,0 mm 0,0 mm nein 8,0 km/h 16,1 km/h 0,0 mm/h SW 89,645 klux 780,0 W/qm 5,0 ja - 14:35
14:4030,0 °C 37 % 1009,1 hPa 0,0 mm 0,0 mm nein 6,4 km/h 14,5 km/h 0,0 mm/h W 70,722 klux 613,0 W/qm 4,2 nein - 14:40
14:4530,0 °C 38 % 1009,0 hPa 0,0 mm 0,0 mm nein 3,2 km/h 14,5 km/h 0,0 mm/h NW 85,598 klux 739,0 W/qm 4,5 ja - 14:45
14:5030,0 °C 39 % 1009,1 hPa 0,0 mm 0,0 mm nein 6,4 km/h 14,5 km/h 0,0 mm/h WNW 95,140 klux 818,0 W/qm 5,0 ja - 14:50
14:5530,6 °C 38 % 1009,0 hPa 0,0 mm 0,0 mm nein 4,8 km/h 12,9 km/h 0,0 mm/h WSW 97,765 klux 837,0 W/qm 5,1 ja - 14:55
15:0030,6 °C 40 % 1008,9 hPa 0,0 mm 0,6 mm nein 9,7 km/h 19,3 km/h 0,0 mm/h W 98,077 klux 836,0 W/qm 5,0 ja - 15:00
15:0530,6 °C 41 % 1008,9 hPa 0,0 mm 0,0 mm nein 8,0 km/h 17,7 km/h 0,0 mm/h SSW 106,295 klux 902,0 W/qm 5,2 ja - 15:05
15:1030,6 °C 35 % 1009,0 hPa 0,0 mm 0,0 mm nein 6,4 km/h 14,5 km/h 0,0 mm/h SSW 105,719 klux 893,0 W/qm 5,1 ja - 15:10
15:1530,0 °C 35 % 1009,0 hPa 0,0 mm 0,0 mm nein 4,8 km/h 14,5 km/h 0,0 mm/h SSW 104,788 klux 881,0 W/qm 5,0 ja - 15:15
15:2030,6 °C 36 % 1008,9 hPa 0,0 mm 0,0 mm nein 8,0 km/h 16,1 km/h 0,0 mm/h WNW 104,691 klux 876,0 W/qm 4,8 ja - 15:20
15:2530,6 °C 34 % 1008,9 hPa 0,0 mm 0,0 mm nein 6,4 km/h 17,7 km/h 0,0 mm/h N 105,800 klux 881,0 W/qm 4,8 ja - 15:25
15:3030,6 °C 35 % 1008,8 hPa 0,0 mm 0,0 mm nein 9,7 km/h 17,7 km/h 0,0 mm/h SSW 105,597 klux 875,0 W/qm 4,7 ja - 15:30
15:3530,6 °C 36 % 1008,8 hPa 0,0 mm 0,0 mm nein 4,8 km/h 11,3 km/h 0,0 mm/h WNW 100,908 klux 832,0 W/qm 4,5 ja - 15:35
15:4030,0 °C 36 % 1008,8 hPa 0,0 mm 0,0 mm nein 6,4 km/h 16,1 km/h 0,0 mm/h SSO 101,905 klux 836,0 W/qm 4,4 ja - 15:40
15:4530,6 °C 37 % 1008,7 hPa 0,0 mm 0,0 mm nein 6,4 km/h 14,5 km/h 0,0 mm/h WNW 100,953 klux 824,0 W/qm 3,9 ja - 15:45
15:5030,0 °C 40 % 1008,8 hPa 0,0 mm 0,0 mm nein 4,8 km/h 11,3 km/h 0,0 mm/h NW 51,967 klux 422,0 W/qm 3,1 nein - 15:50
15:5530,0 °C 39 % 1008,7 hPa 0,0 mm 0,0 mm nein 6,4 km/h 14,5 km/h 0,0 mm/h NW 59,416 klux 480,0 W/qm 3,1 nein - 15:55
UhrzeitTemperaturFeuchteLuftdruckNiederschlagEvapotranspirationNiederschlag?WindWindböenRegenrateWindrichtungHelligkeitSolarstrahlungUV-IndexSonne?Feinstaub 10µmUhrzeit
16:0030,0 °C 39 % 1008,6 hPa 0,0 mm 0,6 mm nein 3,2 km/h 6,4 km/h 0,0 mm/h WNW 101,782 klux 818,0 W/qm 3,4 ja - 16:00
16:0530,0 °C 39 % 1008,5 hPa 0,0 mm 0,0 mm nein 4,8 km/h 12,9 km/h 0,0 mm/h SSW 103,441 klux 827,0 W/qm 3,3 ja - 16:05
16:1030,0 °C 38 % 1008,6 hPa 0,0 mm 0,0 mm nein 6,4 km/h 14,5 km/h 0,0 mm/h W 27,285 klux 217,0 W/qm 2,7 nein - 16:10
16:1530,0 °C 38 % 1008,5 hPa 0,0 mm 0,0 mm nein 4,8 km/h 8,0 km/h 0,0 mm/h W 94,801 klux 750,0 W/qm 3,5 ja - 16:15
16:2030,0 °C 41 % 1008,4 hPa 0,0 mm 0,0 mm nein 1,6 km/h 4,8 km/h 0,0 mm/h WNW 91,999 klux 724,0 W/qm 3,3 ja - 16:20
16:2529,4 °C 40 % 1008,5 hPa 0,0 mm 0,0 mm nein 6,4 km/h 12,9 km/h 0,0 mm/h SO 94,915 klux 743,0 W/qm 3,3 ja - 16:25
16:3030,0 °C 39 % 1008,3 hPa 0,0 mm 0,0 mm nein 6,4 km/h 17,7 km/h 0,0 mm/h SSW 94,007 klux 732,0 W/qm 3,2 ja - 16:30
16:3530,0 °C 41 % 1008,3 hPa 0,0 mm 0,0 mm nein 8,0 km/h 14,5 km/h 0,0 mm/h S 90,246 klux 699,0 W/qm 3,1 ja - 16:35
16:4030,0 °C 42 % 1008,1 hPa 0,0 mm 0,0 mm nein 4,8 km/h 11,3 km/h 0,0 mm/h SW 88,261 klux 680,0 W/qm 3,0 ja - 16:40
16:4530,0 °C 42 % 1008,1 hPa 0,0 mm 0,0 mm nein 6,4 km/h 16,1 km/h 0,0 mm/h S 86,382 klux 662,0 W/qm 2,7 ja - 16:45
Gesamt: 23,8 °C 61 % 1011,1 hPa 0,0 mm 4,7 mm nein 3,0 km/h 7,2 km/h 0,0 mm/h 0 50,633 klux 413,3 W/qm 2,2 ja nan µg/m³

Insgesamt 202 Zeilen mal 15 Spalten = 3030 Werte werden angezeigt.

www.wetter-rosstal.de   •   www.wetter-franken.de   •   www.lightningmaps.org   •   Start   •   Kontakt / Datenschutz   •   PC-Kümmerer